Time;durP1;ratioP1;P1;durP2;ratioP2;P2;SDS_P1;SDS_P2;PMS_P1;PMS_P2;Temp;Humidity;BMP_temperature;BMP_pressure;BME280_temperature;BME280_humidity;BME280_pressure;Samples;Min_cycle;Max_cycle;Signal;HPM_P1;HPM_P2
2022/04/12 00:00:20;;;;;;;0.30;0.20;;;;;;;6.18;61.08;95777.22;5090794;28;20436;-50
2022/04/12 00:02:48;;;;;;;11.83;0.40;;;;;;;6.63;58.11;95773.97;5090358;28;20503;-50
2022/04/12 00:05:18;;;;;;;0.30;0.20;;;;;;;6.94;56.02;95768.22;5092581;28;20424;-50
2022/04/12 00:08:00;;;;;;;0.30;0.20;;;;;;;7.33;55.17;95774.47;5094956;28;20524;-50
2022/04/12 00:10:29;;;;;;;0.30;0.20;;;;;;;7.41;54.73;95774.88;5094671;28;20467;-50
2022/04/12 00:12:58;;;;;;;0.50;0.50;;;;;;;7.38;53.39;95770.09;5095373;28;20429;-50
2022/04/12 00:15:27;;;;;;;0.30;0.20;;;;;;;6.49;55.34;95754.19;5094721;28;20461;-50
2022/04/12 00:20:43;;;;;;;0.40;0.20;;;;;;;6.71;56.95;95708.53;5094874;28;20460;-51
2022/04/12 00:23:14;;;;;;;0.30;0.20;;;;;;;7.42;55.84;95773.84;5094722;28;20425;-51
2022/04/12 00:25:44;;;;;;;0.30;0.20;;;;;;;7.43;56.06;95767.56;5094490;28;20428;-51
2022/04/12 00:28:14;;;;;;;0.30;0.20;;;;;;;7.46;54.55;95764.41;5094838;28;20875;-51
2022/04/12 00:30:43;;;;;;;0.30;0.20;;;;;;;7.42;57.23;95765.94;5094385;28;20960;-51
2022/04/12 00:33:12;;;;;;;0.30;0.20;;;;;;;7.28;55.04;95759.38;5094403;28;20477;-51
2022/04/12 00:35:40;;;;;;;0.30;0.20;;;;;;;7.41;55.13;95758.28;5093780;28;20428;-50
2022/04/12 00:38:17;;;;;;;0.30;0.20;;;;;;;7.41;53.78;95758.28;5093633;28;20861;-50
2022/04/12 00:40:48;;;;;;;0.30;0.20;;;;;;;7.42;54.59;95758.03;5094067;28;20420;-50
2022/04/12 00:43:19;;;;;;;0.40;0.20;;;;;;;7.38;55.13;95759.56;5094532;28;20482;-50
2022/04/12 00:45:47;;;;;;;0.30;0.20;;;;;;;7.29;55.26;95741.69;5094061;28;21014;-50
2022/04/12 00:48:16;;;;;;;0.30;0.20;;;;;;;6.97;54.66;95692.16;5093457;28;20496;-50
2022/04/12 00:50:46;;;;;;;0.30;0.20;;;;;;;7.35;55.90;95738.13;5093997;28;20497;-50
2022/04/12 00:53:15;;;;;;;0.30;0.20;;;;;;;7.26;56.28;95737.72;5094366;28;20824;-50
2022/04/12 00:55:44;;;;;;;0.30;0.20;;;;;;;7.24;55.90;95731.88;5094282;28;20428;-50
2022/04/12 00:58:14;;;;;;;0.40;0.40;;;;;;;7.43;55.74;95749.09;5094005;28;20508;-50
2022/04/12 01:00:42;;;;;;;0.30;0.20;;;;;;;6.06;60.48;95757.22;5093043;28;20443;-50
2022/04/12 01:03:11;;;;;;;0.30;0.30;;;;;;;5.30;67.74;95779.06;5092971;28;20459;-50
2022/04/12 01:05:40;;;;;;;0.50;0.50;;;;;;;3.95;72.36;95684.31;5093498;28;20424;-50
2022/04/12 01:08:09;;;;;;;0.30;0.23;;;;;;;3.65;74.95;95621.31;5092808;28;20543;-50
2022/04/12 01:10:37;;;;;;;0.40;0.27;;;;;;;4.48;77.96;95759.53;5093662;28;20551;-51
2022/04/12 01:13:06;;;;;;;0.30;0.20;;;;;;;5.00;76.45;95759.91;5093604;28;20490;-50
2022/04/12 01:15:36;;;;;;;0.40;0.30;;;;;;;5.35;73.45;95762.63;5093763;28;20432;-50
2022/04/12 01:18:05;;;;;;;0.30;0.20;;;;;;;5.43;71.94;95770.19;5092318;28;20428;-50
2022/04/12 01:20:33;;;;;;;0.30;0.20;;;;;;;5.36;73.14;95770.28;5093510;28;20516;-51
2022/04/12 01:23:10;;;;;;;0.40;0.30;;;;;;;4.65;78.75;95778.13;5093430;28;20478;-50
2022/04/12 01:25:40;;;;;;;0.30;0.20;;;;;;;5.25;75.69;95772.88;5092437;28;20428;-50
2022/04/12 01:28:10;;;;;;;0.30;0.20;;;;;;;6.08;69.06;95769.13;5092046;28;20460;-50
2022/04/12 01:30:39;;;;;;;0.30;0.20;;;;;;;6.10;66.51;95772.31;5093784;28;20501;-50
2022/04/12 01:33:08;;;;;;;0.30;0.20;;;;;;;5.81;67.78;95756.63;5093383;28;20420;-51
2022/04/12 01:35:37;;;;;;;0.30;0.20;;;;;;;5.92;65.71;95764.53;5093329;28;20453;-50
2022/04/12 01:38:06;;;;;;;0.30;0.30;;;;;;;5.96;64.49;95754.34;5093464;28;20440;-50
2022/04/12 01:40:34;;;;;;;0.30;0.20;;;;;;;6.04;65.48;95770.63;5092947;28;20998;-50
2022/04/12 01:43:04;;;;;;;0.30;0.20;;;;;;;5.68;69.92;95773.41;5093057;28;20936;-51
2022/04/12 01:45:33;;;;;;;0.30;0.20;;;;;;;5.97;68.01;95767.28;5091715;28;20468;-51
2022/04/12 01:48:01;;;;;;;0.30;0.20;;;;;;;5.85;68.67;95774.38;5092920;28;20547;-51
2022/04/12 01:50:30;;;;;;;0.40;0.40;;;;;;;5.59;71.37;95772.16;5092844;28;20471;-51
2022/04/12 01:52:58;;;;;;;0.30;0.20;;;;;;;5.41;73.10;95773.03;5093003;28;20943;-52
2022/04/12 01:55:26;;;;;;;0.30;0.20;;;;;;;5.27;74.46;95771.63;5092118;28;20428;-51
2022/04/12 01:57:55;;;;;;;0.30;0.20;;;;;;;5.42;72.07;95773.81;5091882;28;20498;-51
2022/04/12 02:00:25;;;;;;;0.30;0.20;;;;;;;5.46;73.24;95772.38;5092358;28;20482;-51
2022/04/12 02:02:53;;;;;;;0.30;0.20;;;;;;;5.26;73.71;95770.03;5092199;28;20416;-51
2022/04/12 02:05:22;;;;;;;0.30;0.20;;;;;;;5.37;74.22;95771.88;5092560;28;20433;-51
2022/04/12 02:07:50;;;;;;;0.30;0.20;;;;;;;5.30;74.03;95781.69;5092579;28;20424;-51
2022/04/12 02:10:21;;;;;;;0.40;0.30;;;;;;;5.17;75.49;95775.81;5091559;28;20495;-51
2022/04/12 02:12:50;;;;;;;0.30;0.20;;;;;;;5.19;76.11;95773.78;5092390;28;20421;-51
2022/04/12 02:15:19;;;;;;;0.30;0.20;;;;;;;5.20;76.20;95776.19;5092434;28;20434;-51
2022/04/12 02:17:48;;;;;;;0.30;0.20;;;;;;;5.25;75.42;95773.69;5092451;28;20429;-51
2022/04/12 02:20:17;;;;;;;0.40;0.40;;;;;;;5.34;75.02;95774.16;5091158;28;20454;-51
2022/04/12 02:22:45;;;;;;;0.40;0.30;;;;;;;5.06;76.81;95780.81;5091740;28;20428;-51
2022/04/12 02:25:14;;;;;;;0.30;0.20;;;;;;;5.24;75.08;95779.19;5092253;28;20851;-51
2022/04/12 02:27:42;;;;;;;0.30;0.20;;;;;;;5.19;74.84;95784.31;5091196;28;20429;-51
2022/04/12 02:30:13;;;;;;;0.30;0.20;;;;;;;5.30;75.38;95775.63;5092562;28;20456;-51
2022/04/12 02:32:42;;;;;;;0.30;0.20;;;;;;;5.12;75.52;95781.75;5092638;28;20432;-52
2022/04/12 02:35:12;;;;;;;0.30;0.20;;;;;;;4.81;77.65;95780.13;5092500;28;20454;-51
2022/04/12 02:37:40;;;;;;;0.30;0.20;;;;;;;4.86;77.51;95789.97;5092282;28;20463;-51
2022/04/12 02:40:09;;;;;;;0.30;0.20;;;;;;;4.72;77.45;95784.09;5091395;28;20479;-51
2022/04/12 02:42:38;;;;;;;0.30;0.20;;;;;;;4.67;78.17;95789.22;5092409;28;20849;-51
2022/04/12 02:45:08;;;;;;;0.30;0.20;;;;;;;4.20;79.56;95787.34;5092338;28;20437;-51
2022/04/12 02:47:36;;;;;;;0.30;0.20;;;;;;;4.39;80.28;95800.25;5092158;28;20428;-51
2022/04/12 02:50:05;;;;;;;0.40;0.33;;;;;;;4.66;77.20;95798.09;5091906;28;20574;-51
2022/04/12 02:52:35;;;;;;;0.30;0.20;;;;;;;4.60;79.03;95799.00;5091876;28;20420;-51
2022/04/12 02:55:04;;;;;;;0.30;0.20;;;;;;;4.69;79.13;95802.91;5092054;28;21002;-51
2022/04/12 02:57:32;;;;;;;0.30;0.20;;;;;;;4.63;79.07;95805.63;5090734;28;20928;-51
2022/04/12 03:00:01;;;;;;;0.40;0.27;;;;;;;4.28;79.85;95802.78;5091807;28;20975;-51
2022/04/12 03:02:29;;;;;;;0.30;0.20;;;;;;;4.63;80.27;95808.25;5091857;28;20464;-51
2022/04/12 03:04:57;;;;;;;0.40;0.37;;;;;;;4.78;78.71;95808.69;5092047;28;20435;-51
2022/04/12 03:07:26;;;;;;;0.57;0.57;;;;;;;4.69;77.17;95784.53;5092191;28;20448;-52
2022/04/12 03:09:55;;;;;;;0.30;0.20;;;;;;;4.74;77.49;95810.94;5091373;28;20483;-51
2022/04/12 03:12:24;;;;;;;0.30;0.20;;;;;;;4.45;79.12;95809.06;5091034;28;20941;-51
2022/04/12 03:14:52;;;;;;;0.30;0.20;;;;;;;4.73;77.21;95809.31;5091003;28;20432;-51
2022/04/12 03:17:21;;;;;;;0.30;0.20;;;;;;;4.89;76.79;95821.06;5091848;28;20851;-51
2022/04/12 03:19:50;;;;;;;0.30;0.20;;;;;;;4.80;74.45;95815.31;5092069;28;20428;-51
2022/04/12 03:22:19;;;;;;;0.30;0.20;;;;;;;4.36;78.96;95821.66;5091778;28;20417;-51
2022/04/12 03:24:47;;;;;;;2.83;2.63;;;;;;;4.46;80.15;95827.22;5091722;28;20503;-51
2022/04/12 03:27:17;;;;;;;0.30;0.20;;;;;;;4.37;80.86;95825.91;5089955;28;20432;-50
2022/04/12 03:29:46;;;;;;;0.30;0.20;;;;;;;4.41;81.74;95823.63;5090355;28;20476;-51
2022/04/12 03:32:14;;;;;;;0.30;0.30;;;;;;;4.38;81.66;95811.75;5091938;28;20461;-51
2022/04/12 03:34:44;;;;;;;0.30;0.20;;;;;;;4.51;82.17;95829.16;5091731;28;20512;-51
2022/04/12 03:37:13;;;;;;;0.30;0.20;;;;;;;3.92;80.64;95758.16;5091938;28;20519;-51
2022/04/12 03:39:42;;;;;;;0.30;0.20;;;;;;;4.42;77.87;95827.88;5091491;28;20464;-51
2022/04/12 03:42:12;;;;;;;0.40;0.30;;;;;;;4.40;81.71;95833.31;5095285;28;20489;-52
2022/04/12 03:44:41;;;;;;;0.73;0.73;;;;;;;4.30;81.57;95811.25;5093785;28;20429;-52
2022/04/12 03:47:10;;;;;;;0.50;0.50;;;;;;;4.37;83.92;95828.53;5095216;28;20424;-51
2022/04/12 03:49:38;;;;;;;0.30;0.20;;;;;;;4.38;81.57;95827.50;5095154;28;20496;-51
2022/04/12 03:52:09;;;;;;;0.30;0.20;;;;;;;4.33;80.02;95819.47;5095595;28;20515;-52
2022/04/12 03:54:37;;;;;;;6.20;1.13;;;;;;;4.45;80.12;95837.94;5094128;28;20435;-52
2022/04/12 03:57:06;;;;;;;0.30;0.20;;;;;;;4.36;79.62;95837.41;5094823;28;20481;-51
2022/04/12 03:59:34;;;;;;;3.70;0.77;;;;;;;4.10;82.42;95834.25;5095440;28;20498;-51
2022/04/12 04:02:05;;;;;;;0.60;0.50;;;;;;;4.23;84.08;95832.28;5095466;28;20460;-51
2022/04/12 04:04:33;;;;;;;0.40;0.33;;;;;;;4.19;84.70;95823.25;5094173;28;20459;-52
2022/04/12 04:07:05;;;;;;;0.30;0.30;;;;;;;3.86;86.99;95841.09;5095043;28;20428;-52
2022/04/12 04:09:34;;;;;;;0.73;0.73;;;;;;;3.92;89.42;95831.59;5094673;28;20515;-52
2022/04/12 04:12:03;;;;;;;0.30;0.20;;;;;;;4.33;84.95;95847.53;5094025;28;20432;-52
2022/04/12 04:14:33;;;;;;;2.73;0.90;;;;;;;3.76;90.78;95848.66;5093631;28;20432;-51
2022/04/12 04:17:01;;;;;;;0.30;0.20;;;;;;;3.77;92.18;95852.84;5095037;28;20462;-51
2022/04/12 04:19:31;;;;;;;2.00;1.90;;;;;;;3.98;90.12;95843.81;5094566;28;20482;-51
2022/04/12 04:22:00;;;;;;;0.30;0.20;;;;;;;4.01;90.12;95846.03;5094718;28;20460;-52
2022/04/12 04:24:33;;;;;;;0.50;0.37;;;;;;;4.28;87.39;95858.69;5094762;28;20944;-52
2022/04/12 04:27:05;;;;;;;0.30;0.20;;;;;;;3.88;89.28;95854.00;5094618;28;20428;-52
2022/04/12 04:29:35;;;;;;;0.60;0.57;;;;;;;4.24;86.77;95849.66;5093989;28;20468;-51
2022/04/12 04:32:04;;;;;;;0.30;0.20;;;;;;;4.49;83.06;95860.09;5094730;28;20452;-52
2022/04/12 04:34:34;;;;;;;0.40;0.20;;;;;;;4.40;83.98;95848.28;5094318;28;20437;-52
2022/04/12 04:37:02;;;;;;;0.30;0.20;;;;;;;4.60;81.85;95862.00;5094699;28;20499;-52
2022/04/12 04:39:30;;;;;;;0.30;0.20;;;;;;;4.69;82.12;95867.75;5093971;28;20432;-51
2022/04/12 04:41:59;;;;;;;0.30;0.20;;;;;;;4.35;85.64;95869.91;5094276;28;20493;-51
2022/04/12 04:44:27;;;;;;;0.30;0.20;;;;;;;4.25;88.34;95874.84;5093952;28;21038;-51
2022/04/12 04:46:56;;;;;;;0.30;0.20;;;;;;;4.17;86.54;95867.28;5094021;28;20810;-51
2022/04/12 04:49:24;;;;;;;2.97;2.73;;;;;;;3.67;83.53;95821.88;5093891;28;20558;-51
2022/04/12 04:51:54;;;;;;;0.30;0.20;;;;;;;4.13;83.61;95883.63;5093934;28;20500;-51
2022/04/12 04:54:22;;;;;;;0.47;0.47;;;;;;;4.45;82.05;95878.09;5093840;28;20429;-51
2022/04/12 04:56:51;;;;;;;0.60;0.60;;;;;;;4.55;80.67;95879.41;5093670;28;20429;-51
2022/04/12 04:59:19;;;;;;;0.50;0.30;;;;;;;4.74;80.61;95878.41;5093943;28;20776;-51
2022/04/12 05:01:54;;;;;;;0.30;0.20;;;;;;;4.20;81.82;95822.22;5093563;28;20777;-51
2022/04/12 05:04:23;;;;;;;0.30;0.30;;;;;;;4.64;80.86;95880.72;5093822;28;20436;-51
2022/04/12 05:06:51;;;;;;;1.23;0.40;;;;;;;5.00;78.83;95876.28;5094105;28;20435;-50
2022/04/12 05:09:21;;;;;;;0.30;0.20;;;;;;;5.54;74.61;95885.88;5093082;28;20462;-51
2022/04/12 05:11:50;;;;;;;7.33;0.40;;;;;;;5.49;72.67;95891.00;5093028;28;20450;-51
2022/04/12 05:14:18;;;;;;;11.80;0.90;;;;;;;5.74;67.31;95878.50;5092509;28;20839;-51
2022/04/12 05:16:47;;;;;;;0.40;0.30;;;;;;;5.98;65.46;95882.03;5093283;28;20444;-51
2022/04/12 05:19:15;;;;;;;0.40;0.30;;;;;;;6.45;62.32;95879.44;5093176;28;20539;-51
2022/04/12 05:21:44;;;;;;;1.47;1.37;;;;;;;5.84;65.04;95891.13;5093877;28;20440;-51
2022/04/12 05:24:12;;;;;;;0.73;0.73;;;;;;;5.59;67.27;95891.25;5093451;28;20428;-51
2022/04/12 05:26:42;;;;;;;0.40;0.30;;;;;;;6.03;65.59;95890.03;5093409;28;20479;-51
2022/04/12 05:29:10;;;;;;;0.40;0.30;;;;;;;6.31;61.97;95858.59;5092559;28;20479;-51
2022/04/12 05:31:39;;;;;;;0.50;0.30;;;;;;;6.71;60.91;95878.94;5093317;28;20478;-51
2022/04/12 05:34:07;;;;;;;0.40;0.23;;;;;;;6.91;61.78;95884.63;5093250;28;20463;-51
2022/04/12 05:36:35;;;;;;;0.30;0.20;;;;;;;7.10;60.04;95872.91;5093251;28;20428;-51
2022/04/12 05:39:04;;;;;;;0.30;0.30;;;;;;;6.58;64.46;95889.75;5093219;28;20909;-50
2022/04/12 05:41:32;;;;;;;1.57;0.80;;;;;;;6.72;64.16;95884.00;5093460;28;20460;-50
2022/04/12 05:44:02;;;;;;;0.30;0.20;;;;;;;7.17;60.82;95883.31;5093035;28;20448;-50
2022/04/12 05:46:31;;;;;;;0.50;0.50;;;;;;;7.29;60.57;95884.06;5093436;28;20848;-50
2022/04/12 05:49:00;;;;;;;0.30;0.30;;;;;;;7.68;57.53;95873.50;5093156;28;20460;-50
2022/04/12 05:51:28;;;;;;;0.90;0.77;;;;;;;7.36;58.78;95869.72;5092780;28;20983;-51
2022/04/12 05:53:56;;;;;;;0.60;0.60;;;;;;;6.82;61.06;95865.75;5092917;28;20959;-51
2022/04/12 05:56:25;;;;;;;0.70;0.60;;;;;;;6.83;61.95;95875.25;5093068;28;20456;-51
2022/04/12 05:58:53;;;;;;;1.43;1.43;;;;;;;6.59;61.81;95870.25;5093326;28;20429;-50
2022/04/12 06:01:23;;;;;;;0.30;0.30;;;;;;;7.05;60.94;95867.53;5093014;28;20436;-51
2022/04/12 06:03:51;;;;;;;1.73;1.00;;;;;;;7.19;58.17;95870.69;5092170;28;20424;-51
2022/04/12 06:06:20;;;;;;;1.60;0.63;;;;;;;7.35;58.97;95854.16;5092957;28;20485;-51
2022/04/12 06:08:48;;;;;;;1.13;1.13;;;;;;;7.59;55.75;95868.81;5092893;28;20439;-51
2022/04/12 06:11:17;;;;;;;3.63;1.47;;;;;;;8.20;55.99;95836.31;5092412;28;20519;-51
2022/04/12 06:13:45;;;;;;;1.37;1.37;;;;;;;8.46;59.23;95859.47;5093148;28;20420;-51
2022/04/12 06:16:14;;;;;;;0.50;0.50;;;;;;;8.15;58.87;95865.28;5092901;28;20432;-51
2022/04/12 06:18:44;;;;;;;2.00;0.50;;;;;;;7.28;60.88;95775.19;5092953;28;20425;-52
2022/04/12 06:21:12;;;;;;;1.10;0.40;;;;;;;8.24;59.29;95863.84;5092459;28;21057;-51
2022/04/12 06:23:43;;;;;;;0.30;0.30;;;;;;;7.68;56.29;95796.19;5092583;28;20922;-51
2022/04/12 06:26:12;;;;;;;2.53;2.43;;;;;;;8.34;52.76;95869.31;5092732;28;20497;-51
2022/04/12 06:28:40;;;;;;;0.30;0.30;;;;;;;9.37;49.56;95797.13;5092822;28;20854;-51
2022/04/12 06:31:09;;;;;;;0.30;0.20;;;;;;;10.15;48.35;95863.53;5091938;28;20508;-51
2022/04/12 06:33:38;;;;;;;0.40;0.30;;;;;;;10.18;48.17;95873.63;5091857;28;20432;-51
2022/04/12 06:36:08;;;;;;;0.50;0.33;;;;;;;10.39;48.57;95857.88;5092526;28;20501;-51
2022/04/12 06:38:36;;;;;;;0.40;0.30;;;;;;;9.99;48.86;95867.06;5092489;28;20730;-50
2022/04/12 06:41:04;;;;;;;0.90;0.80;;;;;;;10.05;48.99;95863.41;5091735;28;20467;-50
2022/04/12 06:43:33;;;;;;;0.40;0.30;;;;;;;10.51;46.60;95858.47;5091505;28;20452;-50
2022/04/12 06:46:01;;;;;;;0.40;0.37;;;;;;;10.88;44.70;95851.28;5092011;28;20494;-50
2022/04/12 06:48:31;;;;;;;0.63;0.63;;;;;;;12.30;43.28;95845.28;5092470;28;20495;-51
2022/04/12 06:51:03;;;;;;;0.70;0.67;;;;;;;12.01;41.98;95846.88;5092123;28;20479;-50
2022/04/12 06:53:34;;;;;;;0.50;0.50;;;;;;;12.77;41.13;95838.84;5092204;28;20428;-52
2022/04/12 06:56:02;;;;;;;0.80;0.80;;;;;;;12.67;40.07;95832.44;5092096;28;20467;-51
2022/04/12 06:58:32;;;;;;;0.40;0.40;;;;;;;13.38;39.27;95834.94;5091897;28;20429;-51
2022/04/12 07:01:01;;;;;;;0.30;0.30;;;;;;;13.42;40.83;95830.63;5092287;28;20429;-51
2022/04/12 07:03:35;;;;;;;0.33;0.27;;;;;;;12.71;40.46;95841.50;5091760;28;20424;-50
2022/04/12 07:06:03;;;;;;;2.00;0.97;;;;;;;11.95;38.18;95837.28;5092278;28;20436;-50
2022/04/12 07:08:33;;;;;;;1.93;1.83;;;;;;;12.61;38.30;95835.41;5092297;28;20451;-50
2022/04/12 07:11:01;;;;;;;0.47;0.47;;;;;;;12.83;36.26;95840.41;5091690;28;20522;-50
2022/04/12 07:13:30;;;;;;;8.83;1.13;;;;;;;13.31;44.07;95839.72;5091795;28;20452;-50
2022/04/12 07:15:58;;;;;;;0.60;0.60;;;;;;;12.96;36.70;95845.16;5095674;28;20502;-51
2022/04/12 07:18:27;;;;;;;0.47;0.47;;;;;;;12.25;37.25;95842.63;5096128;28;20820;-51
2022/04/12 07:20:55;;;;;;;0.47;0.30;;;;;;;12.30;36.92;95834.63;5095792;28;20468;-51
2022/04/12 07:23:24;;;;;;;0.60;0.60;;;;;;;13.68;37.67;95839.28;5095304;28;20443;-51
2022/04/12 07:25:56;;;;;;;0.43;0.40;;;;;;;13.42;36.67;95838.63;5095880;28;20990;-52
2022/04/12 07:28:24;;;;;;;2.67;0.30;;;;;;;13.38;35.02;95812.81;5095881;28;20987;-52
2022/04/12 07:30:52;;;;;;;0.40;0.40;;;;;;;13.73;35.12;95839.25;5095712;28;20507;-53
2022/04/12 07:33:27;;;;;;;0.40;0.30;;;;;;;13.79;34.95;95844.25;5095832;28;20435;-53
2022/04/12 07:35:55;;;;;;;0.30;0.20;;;;;;;14.28;34.73;95819.38;5094833;28;20429;-53
2022/04/12 07:38:24;;;;;;;0.40;0.30;;;;;;;15.65;33.07;95827.53;5095897;28;20502;-54
2022/04/12 07:40:53;;;;;;;0.50;0.40;;;;;;;16.30;33.46;95823.06;5095364;28;20910;-54
2022/04/12 07:43:23;;;;;;;4.57;0.37;;;;;;;15.23;31.48;95825.63;5095553;28;20421;-54
2022/04/12 07:45:51;;;;;;;0.60;0.50;;;;;;;14.88;32.85;95826.84;5095387;28;20516;-56
2022/04/12 07:48:40;;;;;;;0.30;0.30;;;;;;;15.49;31.88;95821.59;5095268;28;20535;-55
2022/04/12 07:51:08;;;;;;;0.40;0.30;;;;;;;16.43;29.55;95812.41;5094977;28;20554;-55
2022/04/12 07:53:38;;;;;;;0.53;0.53;;;;;;;15.77;30.82;95818.00;5095269;28;20416;-56
2022/04/12 07:56:07;;;;;;;0.50;0.40;;;;;;;15.81;30.31;95816.31;5095139;28;20523;-56
2022/04/12 07:58:37;;;;;;;0.50;0.40;;;;;;;15.76;30.17;95800.38;5095037;28;20412;-56
2022/04/12 08:01:05;;;;;;;0.30;0.30;;;;;;;16.34;30.04;95810.72;5094807;28;20446;-54
2022/04/12 08:03:34;;;;;;;0.50;0.40;;;;;;;16.22;29.38;95813.84;5094823;28;20957;-54
2022/04/12 08:06:02;;;;;;;0.40;0.40;;;;;;;17.03;27.92;95813.22;5095318;28;20464;-55
2022/04/12 08:08:32;;;;;;;0.40;0.30;;;;;;;16.14;27.06;95814.50;5094947;28;20523;-55
2022/04/12 08:11:01;;;;;;;0.40;0.33;;;;;;;16.84;27.67;95809.03;5094617;28;20503;-55
2022/04/12 08:13:32;;;;;;;0.53;0.53;;;;;;;16.72;26.35;95817.53;5094807;28;20982;-56
2022/04/12 08:16:02;;;;;;;0.40;0.30;;;;;;;18.09;27.50;95802.91;5094613;28;20431;-56
2022/04/12 08:18:31;;;;;;;0.50;0.30;;;;;;;19.25;26.51;95791.84;5095104;28;20847;-56
2022/04/12 08:21:00;;;;;;;0.70;0.67;;;;;;;18.45;24.60;95802.84;5094740;28;20440;-56
2022/04/12 08:23:29;;;;;;;0.50;0.40;;;;;;;19.53;24.27;95789.75;5094707;28;20432;-55
2022/04/12 08:25:57;;;;;;;0.40;0.30;;;;;;;20.08;23.94;95745.00;5094019;28;20440;-55
2022/04/12 08:28:26;;;;;;;0.40;0.30;;;;;;;18.72;24.88;95791.97;5094605;28;20498;-55
2022/04/12 08:30:54;;;;;;;0.40;0.30;;;;;;;20.09;23.33;95778.84;5094697;28;20443;-55
2022/04/12 08:33:25;;;;;;;0.50;0.30;;;;;;;21.56;22.31;95781.88;5094344;28;20456;-55
2022/04/12 08:35:58;;;;;;;0.40;0.30;;;;;;;22.14;21.84;95781.78;5094363;28;20493;-55
2022/04/12 08:38:26;;;;;;;0.40;0.20;;;;;;;20.88;22.73;95762.22;5094681;28;20424;-55
2022/04/12 08:40:56;;;;;;;0.50;0.40;;;;;;;20.65;22.05;95783.22;5094639;28;20459;-53
2022/04/12 08:43:29;;;;;;;0.50;0.50;;;;;;;18.36;22.11;95786.72;5094581;28;20795;-53
2022/04/12 08:45:58;;;;;;;0.50;0.40;;;;;;;18.84;23.66;95780.66;5094784;28;20553;-53
2022/04/12 08:48:29;;;;;;;0.30;0.20;;;;;;;18.31;24.77;95777.97;5094620;28;20433;-54
2022/04/12 08:50:59;;;;;;;0.40;0.30;;;;;;;18.92;22.37;95767.25;5094290;28;20435;-54
2022/04/12 08:53:27;;;;;;;7.00;0.47;;;;;;;20.23;23.92;95741.84;5094399;28;20516;-54
2022/04/12 08:55:56;;;;;;;0.40;0.30;;;;;;;19.95;21.38;95767.47;5094508;28;20464;-53
2022/04/12 08:58:25;;;;;;;0.30;0.20;;;;;;;20.19;21.35;95694.28;5093781;28;20903;-54
2022/04/12 09:00:54;;;;;;;0.40;0.20;;;;;;;20.77;23.40;95750.25;5094024;28;20437;-53
2022/04/12 09:03:27;;;;;;;2.13;0.70;;;;;;;21.24;20.79;95741.00;5094189;28;20512;-53
2022/04/12 09:05:57;;;;;;;0.87;0.40;;;;;;;21.78;21.29;95738.41;5094039;28;20436;-54
2022/04/12 09:08:29;;;;;;;0.40;0.30;;;;;;;21.27;23.00;95732.25;5094046;28;20980;-52
2022/04/12 09:11:00;;;;;;;0.40;0.30;;;;;;;20.38;20.46;95735.16;5093510;28;20907;-52
2022/04/12 09:13:29;;;;;;;0.60;0.50;;;;;;;20.89;20.43;95726.88;5093695;28;20455;-52
2022/04/12 09:15:58;;;;;;;0.40;0.30;;;;;;;19.36;21.91;95730.53;5093842;28;20954;-53
2022/04/12 09:18:48;;;;;;;0.60;0.40;;;;;;;20.75;21.42;95722.81;5093416;28;20531;-54
2022/04/12 09:21:19;;;;;;;0.50;0.40;;;;;;;20.52;21.01;95705.31;5093758;28;20940;-53
2022/04/12 09:23:51;;;;;;;1.00;0.50;;;;;;;21.13;21.27;95712.03;5093933;28;20428;-54
2022/04/12 09:26:24;;;;;;;0.40;0.30;;;;;;;21.32;21.73;95707.00;5094038;28;20452;-53
2022/04/12 09:28:53;;;;;;;0.60;0.33;;;;;;;22.09;20.84;95701.78;5093996;28;20486;-54
2022/04/12 09:31:24;;;;;;;0.40;0.30;;;;;;;21.47;20.53;95701.03;5093429;28;20437;-54
2022/04/12 09:33:54;;;;;;;0.63;0.63;;;;;;;20.71;20.87;95697.66;5093242;28;20460;-54
2022/04/12 09:36:24;;;;;;;0.43;0.40;;;;;;;20.38;21.34;95694.75;5093507;28;20842;-54
2022/04/12 09:38:59;;;;;;;0.30;0.20;;;;;;;22.22;20.02;95686.41;5092455;28;20845;-53
2022/04/12 09:41:29;;;;;;;1.57;0.60;;;;;;;20.38;21.18;95689.38;5093236;28;20438;-53
2022/04/12 09:44:06;;;;;;;0.40;0.30;;;;;;;20.38;21.01;95680.50;5093265;28;20443;-53
2022/04/12 09:46:35;;;;;;;0.40;0.20;;;;;;;21.75;22.65;95674.31;5093205;28;20436;-54
2022/04/12 09:49:04;;;;;;;0.40;0.40;;;;;;;19.89;22.93;95668.41;5093259;28;20433;-54
2022/04/12 09:51:36;;;;;;;0.40;0.30;;;;;;;20.08;22.95;95594.28;5093251;28;20435;-54
2022/04/12 09:54:06;;;;;;;0.30;0.20;;;;;;;21.05;21.29;95659.72;5093375;28;20504;-53
2022/04/12 09:56:35;;;;;;;0.60;0.60;;;;;;;20.13;22.54;95655.22;5093292;28;20454;-53
2022/04/12 09:59:07;;;;;;;0.30;0.20;;;;;;;22.01;23.57;95642.50;5092336;28;20428;-54
2022/04/12 10:01:40;;;;;;;0.40;0.23;;;;;;;22.22;20.15;95635.13;5092881;28;20834;-53
2022/04/12 10:04:15;;;;;;;0.53;0.53;;;;;;;22.94;19.79;95628.19;5092988;28;20432;-54
2022/04/12 10:06:46;;;;;;;0.40;0.30;;;;;;;24.82;18.68;95614.03;5092739;28;20420;-54
2022/04/12 10:09:20;;;;;;;0.53;0.30;;;;;;;24.49;18.42;95619.00;5090965;28;20420;-53
2022/04/12 10:11:49;;;;;;;0.47;0.33;;;;;;;22.52;18.79;95627.59;5091884;28;20522;-54
2022/04/12 10:14:19;;;;;;;0.60;0.53;;;;;;;22.82;19.76;95625.50;5091613;28;20728;-54
2022/04/12 10:16:51;;;;;;;0.40;0.30;;;;;;;22.80;20.48;95568.28;5091783;28;20912;-54
2022/04/12 10:19:21;;;;;;;0.30;0.30;;;;;;;22.61;20.79;95574.25;5092130;28;20850;-56
2022/04/12 10:21:51;;;;;;;0.30;0.20;;;;;;;23.42;19.80;95592.97;5091956;28;20764;-54
2022/04/12 10:24:20;;;;;;;0.40;0.30;;;;;;;23.63;21.08;95565.72;5092142;28;20460;-54
2022/04/12 10:26:50;;;;;;;0.40;0.40;;;;;;;24.61;20.43;95586.41;5092292;28;20524;-54
2022/04/12 10:29:18;;;;;;;0.43;0.40;;;;;;;23.52;18.82;95583.56;5092236;28;20485;-54
2022/04/12 10:31:57;;;;;;;0.40;0.30;;;;;;;22.41;19.79;95577.88;5092263;28;20542;-53
2022/04/12 10:35:04;;;;;;;0.53;0.53;;;;;;;21.45;20.78;95582.69;5092017;28;21020;-54
2022/04/12 10:37:39;;;;;;;0.40;0.33;;;;;;;22.31;20.95;95578.31;5092241;28;20466;-54
2022/04/12 10:40:29;;;;;;;0.40;0.30;;;;;;;22.50;19.95;95570.44;5091962;28;20443;-54
2022/04/12 10:43:04;;;;;;;0.40;0.30;;;;;;;23.83;19.52;95553.88;5092422;28;20440;-54
2022/04/12 10:45:34;;;;;;;1.07;1.07;;;;;;;24.06;21.12;95554.06;5092148;28;21112;-54
2022/04/12 10:48:04;;;;;;;0.40;0.30;;;;;;;24.00;18.52;95551.63;5092203;28;20948;-55
2022/04/12 10:50:43;;;;;;;0.40;0.30;;;;;;;25.12;19.55;95544.56;5091774;28;20441;-55
2022/04/12 10:53:16;;;;;;;0.30;0.20;;;;;;;24.65;19.60;95541.19;5092301;28;20498;-55
2022/04/12 10:55:45;;;;;;;1.07;0.33;;;;;;;23.96;20.30;95534.47;5092012;28;20420;-55
2022/04/12 10:58:29;;;;;;;0.40;0.30;;;;;;;23.66;18.97;95568.50;5092503;28;20444;-55
2022/04/12 11:00:58;;;;;;;0.30;0.20;;;;;;;24.93;19.31;95528.31;5092299;28;20476;-55
2022/04/12 11:03:27;;;;;;;0.67;0.40;;;;;;;23.76;19.46;95446.19;5092058;28;20436;-54
2022/04/12 11:06:00;;;;;;;0.40;0.30;;;;;;;22.11;21.35;95470.06;5092532;28;20428;-54
2022/04/12 11:08:49;;;;;;;0.30;0.30;;;;;;;25.16;18.00;95520.25;5091655;28;20439;-54
2022/04/12 11:11:27;;;;;;;0.37;0.27;;;;;;;26.44;17.00;95516.78;5090536;28;20474;-54
2022/04/12 11:14:22;;;;;;;0.40;0.40;;;;;;;27.01;16.22;95509.47;5091361;28;20924;-54
2022/04/12 11:16:51;;;;;;;0.40;0.40;;;;;;;24.88;18.07;95506.88;5091163;28;20493;-54
2022/04/12 11:19:24;;;;;;;0.40;0.40;;;;;;;25.13;18.13;95500.06;5091057;28;20455;-54
2022/04/12 11:22:03;;;;;;;0.30;0.20;;;;;;;25.97;18.53;95486.50;5091757;28;20508;-54
2022/04/12 11:24:33;;;;;;;0.30;0.30;;;;;;;22.82;18.89;95507.34;5091415;28;20453;-53
2022/04/12 11:27:04;;;;;;;0.40;0.30;;;;;;;24.12;18.95;95385.56;5090419;28;20486;-54
2022/04/12 11:29:34;;;;;;;0.40;0.30;;;;;;;24.92;18.43;95488.00;5091229;28;20464;-53
2022/04/12 11:32:03;;;;;;;0.30;0.20;;;;;;;26.82;18.40;95487.81;5091359;28;20464;-52
2022/04/12 11:34:32;;;;;;;0.30;0.30;;;;;;;25.32;18.29;95483.00;5090286;28;20993;-52
2022/04/12 11:37:03;;;;;;;0.70;0.50;;;;;;;25.58;18.70;95480.38;5091249;28;20486;-52
2022/04/12 11:39:37;;;;;;;0.73;0.73;;;;;;;25.10;17.93;95481.78;5091429;28;20447;-53
2022/04/12 11:42:06;;;;;;;0.40;0.30;;;;;;;24.54;17.57;95480.56;5091367;28;20466;-52
2022/04/12 11:44:35;;;;;;;0.63;0.40;;;;;;;25.24;19.11;95462.28;5091402;28;20436;-53
2022/04/12 11:47:05;;;;;;;0.57;0.53;;;;;;;23.68;18.49;95463.38;5091256;28;20433;-52
2022/04/12 11:49:37;;;;;;;0.30;0.20;;;;;;;23.78;18.35;95457.44;5090432;28;20456;-52
2022/04/12 11:52:07;;;;;;;0.40;0.30;;;;;;;24.88;17.24;95449.94;5089960;28;20472;-51
2022/04/12 11:54:39;;;;;;;0.30;0.20;;;;;;;26.21;18.65;95437.22;5090871;28;20468;-53